createdAt,value
2023-03-16T00:03:54.396Z,99.90
2023-03-16T00:08:21.263Z,99.90
2023-03-16T00:12:47.838Z,99.90
2023-03-16T00:17:21.010Z,99.90
2023-03-16T00:21:46.226Z,99.90
2023-03-16T00:26:13.063Z,99.90
2023-03-16T00:30:37.228Z,99.90
2023-03-16T00:35:03.817Z,99.90
2023-03-16T00:39:27.806Z,99.90
2023-03-16T00:43:53.735Z,99.90
2023-03-16T00:48:18.562Z,99.90
2023-03-16T00:52:44.214Z,99.90
2023-03-16T00:57:09.168Z,99.90
2023-03-16T01:01:33.478Z,99.90
2023-03-16T01:06:00.245Z,99.90
2023-03-16T01:10:26.016Z,99.90
2023-03-16T01:14:50.497Z,99.90
2023-03-16T01:19:14.963Z,99.90
2023-03-16T01:23:39.657Z,99.90
2023-03-16T01:28:04.974Z,99.90
2023-03-16T01:32:29.078Z,99.90
2023-03-16T01:36:54.089Z,99.90
2023-03-16T01:41:48.368Z,99.90
2023-03-16T01:46:26.056Z,99.90
2023-03-16T01:50:52.524Z,99.90
2023-03-16T01:55:17.080Z,99.90
2023-03-16T01:59:45.852Z,99.90
2023-03-16T02:04:19.842Z,99.90
2023-03-16T02:08:46.308Z,99.90
2023-03-16T02:13:11.228Z,99.90
2023-03-16T02:17:37.058Z,99.90
2023-03-16T02:22:09.835Z,99.90
2023-03-16T02:26:44.806Z,99.90
2023-03-16T02:31:13.552Z,99.90
2023-03-16T02:35:37.672Z,99.90
2023-03-16T02:40:02.165Z,99.90
2023-03-16T02:44:34.075Z,99.90
2023-03-16T02:49:06.339Z,99.90
2023-03-16T02:53:31.125Z,99.90
2023-03-16T02:57:56.989Z,99.90
2023-03-16T03:02:21.499Z,99.90
2023-03-16T03:06:47.228Z,99.90
2023-03-16T03:11:12.096Z,99.90
2023-03-16T03:15:36.748Z,99.90
2023-03-16T03:20:07.999Z,99.90
2023-03-16T03:24:34.025Z,99.90
2023-03-16T03:28:59.024Z,99.90
2023-03-16T03:33:23.499Z,99.90
2023-03-16T03:37:48.591Z,99.90
2023-03-16T03:42:16.077Z,99.90
2023-03-16T03:46:40.768Z,99.90
2023-03-16T03:51:05.674Z,99.90
2023-03-16T03:55:32.388Z,99.90
2023-03-16T03:59:59.702Z,99.90
2023-03-16T04:04:53.048Z,99.90
2023-03-16T04:09:17.043Z,99.90
2023-03-16T04:13:42.453Z,99.90
2023-03-16T04:18:09.342Z,99.90
2023-03-16T04:22:34.173Z,99.90
2023-03-16T04:26:59.310Z,99.90
2023-03-16T04:31:23.740Z,99.90
2023-03-16T04:35:49.366Z,99.90
2023-03-16T04:40:17.672Z,99.90
2023-03-16T04:44:48.219Z,99.90
2023-03-16T04:49:12.620Z,99.90
2023-03-16T04:53:41.884Z,99.90
2023-03-16T04:58:14.220Z,99.90
2023-03-16T05:02:41.000Z,99.90
2023-03-16T05:07:05.944Z,99.90
2023-03-16T05:11:36.042Z,99.90
2023-03-16T05:16:03.066Z,99.90
2023-03-16T05:20:31.469Z,99.90
2023-03-16T05:24:57.937Z,99.90
2023-03-16T05:29:25.133Z,99.90
2023-03-16T05:33:49.082Z,99.90
2023-03-16T05:38:16.896Z,99.90
2023-03-16T05:42:41.879Z,99.90
2023-03-16T05:47:07.854Z,99.90
2023-03-16T05:51:36.906Z,99.90
2023-03-16T05:56:03.078Z,99.90
2023-03-16T06:00:30.471Z,99.90
2023-03-16T06:05:10.251Z,99.90
2023-03-16T06:09:38.001Z,99.90
2023-03-16T06:14:08.511Z,99.90
2023-03-16T06:18:34.393Z,99.90
2023-03-16T06:23:00.217Z,99.90
2023-03-16T06:27:26.589Z,99.90
2023-03-16T06:32:04.585Z,99.90
2023-03-16T06:36:29.352Z,99.90
2023-03-16T06:40:58.183Z,99.90
2023-03-16T06:45:22.481Z,99.90
2023-03-16T06:49:47.998Z,99.90
2023-03-16T06:54:17.047Z,99.90
2023-03-16T06:58:42.531Z,99.90
2023-03-16T07:03:06.639Z,99.90
2023-03-16T07:07:31.768Z,99.90
2023-03-16T07:11:56.251Z,99.90
2023-03-16T07:16:22.147Z,99.90
2023-03-16T07:20:47.072Z,98.70
2023-03-16T07:25:14.034Z,91.00
2023-03-16T07:29:43.315Z,75.00
2023-03-16T07:34:08.818Z,72.30
2023-03-16T07:38:40.358Z,70.40
2023-03-16T07:43:04.707Z,69.10
2023-03-16T07:47:33.732Z,68.00
2023-03-16T07:52:07.599Z,64.40
2023-03-16T07:56:48.447Z,65.50
2023-03-16T08:01:23.802Z,68.20
2023-03-16T08:05:48.266Z,62.60
2023-03-16T08:10:15.363Z,52.10
2023-03-16T08:15:02.226Z,52.40
2023-03-16T08:19:29.207Z,51.20
2023-03-16T08:23:56.251Z,48.50
2023-03-16T08:28:22.679Z,48.30
2023-03-16T08:32:47.559Z,48.90
2023-03-16T08:37:12.428Z,50.00
2023-03-16T08:41:37.125Z,47.70
2023-03-16T08:46:07.720Z,45.80
2023-03-16T08:50:41.084Z,44.10
2023-03-16T08:55:05.777Z,44.30
2023-03-16T08:59:30.788Z,44.60
2023-03-16T09:03:56.436Z,45.10
2023-03-16T09:08:21.709Z,44.20
2023-03-16T09:12:46.639Z,46.00
2023-03-16T09:17:11.841Z,48.90
2023-03-16T09:21:37.562Z,44.70
2023-03-16T09:26:03.299Z,43.20
2023-03-16T09:30:28.388Z,39.40
2023-03-16T09:34:52.543Z,39.60
2023-03-16T09:39:18.300Z,42.00
2023-03-16T09:44:01.504Z,41.50
2023-03-16T09:48:27.625Z,41.90
2023-03-16T09:52:59.499Z,38.50
2023-03-16T09:57:29.565Z,38.10
2023-03-16T10:02:15.725Z,37.50
2023-03-16T10:06:48.324Z,40.20
2023-03-16T10:11:33.036Z,38.70
2023-03-16T10:16:00.820Z,40.40
2023-03-16T10:20:27.497Z,41.50
2023-03-16T10:25:03.740Z,42.90
2023-03-16T10:29:29.641Z,40.30
2023-03-16T10:34:02.094Z,41.40
2023-03-16T10:38:32.937Z,40.30
2023-03-16T10:42:56.939Z,41.60
2023-03-16T10:47:25.229Z,40.30
2023-03-16T10:51:51.332Z,37.70
2023-03-16T10:56:23.714Z,37.30
2023-03-16T11:00:47.926Z,35.70
2023-03-16T11:05:17.367Z,35.60
2023-03-16T11:09:43.207Z,36.90
2023-03-16T11:14:15.332Z,36.20
2023-03-16T11:18:43.819Z,36.40
2023-03-16T11:23:12.502Z,35.70
2023-03-16T11:27:43.436Z,37.00
2023-03-16T11:32:14.140Z,39.20
2023-03-16T11:36:45.776Z,37.60
2023-03-16T11:41:14.920Z,39.50
2023-03-16T11:45:47.342Z,36.80
2023-03-16T11:50:21.305Z,38.20
2023-03-16T11:54:56.628Z,39.10
2023-03-16T11:59:52.024Z,39.10
2023-03-16T12:04:47.104Z,38.90
2023-03-16T12:09:44.536Z,38.80
2023-03-16T12:14:15.773Z,38.90
2023-03-16T12:18:44.280Z,37.50
2023-03-16T12:23:09.342Z,37.90
2023-03-16T12:27:32.485Z,37.00
2023-03-16T12:32:00.819Z,38.60
2023-03-16T12:36:48.129Z,40.00
2023-03-16T12:41:21.986Z,41.00
2023-03-16T12:45:53.345Z,42.70
2023-03-16T12:50:20.738Z,43.70
2023-03-16T12:54:52.992Z,44.80
2023-03-16T12:59:19.640Z,45.80
2023-03-16T13:03:44.632Z,46.30
2023-03-16T13:08:13.735Z,46.50
2023-03-16T13:12:41.789Z,46.90
2023-03-16T13:17:27.822Z,46.70
2023-03-16T13:22:04.141Z,47.20
2023-03-16T13:26:40.600Z,46.60
2023-03-16T13:31:07.223Z,45.90
2023-03-16T13:35:33.485Z,46.30
2023-03-16T13:40:00.007Z,46.60
2023-03-16T13:44:25.180Z,45.60
2023-03-16T13:48:49.626Z,46.20
2023-03-16T13:53:29.019Z,47.30
2023-03-16T13:57:53.492Z,47.20
2023-03-16T14:02:19.846Z,46.80
2023-03-16T14:06:55.022Z,48.10
2023-03-16T14:11:20.502Z,47.10
2023-03-16T14:15:46.695Z,47.10
2023-03-16T14:20:19.400Z,46.50
2023-03-16T14:24:48.090Z,46.80
2023-03-16T14:29:22.744Z,47.30
2023-03-16T14:33:48.037Z,46.80
2023-03-16T14:38:25.785Z,45.90
2023-03-16T14:42:50.244Z,46.60
2023-03-16T14:47:23.809Z,46.90
2023-03-16T14:51:49.576Z,47.00
2023-03-16T14:56:14.678Z,47.20
2023-03-16T15:00:51.892Z,47.50
2023-03-16T15:05:24.434Z,47.10
2023-03-16T15:09:49.704Z,47.40
2023-03-16T15:14:35.505Z,47.60
2023-03-16T15:18:59.433Z,47.30
2023-03-16T15:23:25.110Z,47.80
2023-03-16T15:27:49.374Z,46.90
2023-03-16T15:32:15.590Z,47.60
2023-03-16T15:36:39.492Z,47.80
2023-03-16T15:41:04.881Z,48.40
2023-03-16T15:45:30.794Z,47.40
2023-03-16T15:49:54.667Z,47.60
2023-03-16T15:54:21.092Z,48.60
2023-03-16T15:58:48.265Z,48.50
2023-03-16T16:03:15.786Z,49.20
2023-03-16T16:07:39.665Z,49.70
2023-03-16T16:12:03.597Z,50.20
2023-03-16T16:16:30.638Z,50.60
2023-03-16T16:20:55.498Z,51.50
2023-03-16T16:25:20.515Z,52.40
2023-03-16T16:29:51.642Z,52.60
2023-03-16T16:34:21.991Z,53.30
2023-03-16T16:38:45.933Z,53.60
2023-03-16T16:43:12.815Z,54.10
2023-03-16T16:47:36.737Z,54.30
2023-03-16T16:52:06.539Z,54.60
2023-03-16T16:56:33.201Z,55.00
2023-03-16T17:00:59.584Z,55.50
2023-03-16T17:05:25.747Z,55.50
2023-03-16T17:09:51.173Z,56.00
2023-03-16T17:14:19.080Z,56.30
2023-03-16T17:18:43.870Z,56.90
2023-03-16T17:23:23.939Z,57.50
2023-03-16T17:27:51.360Z,58.60
2023-03-16T17:32:20.017Z,58.60
2023-03-16T17:36:44.556Z,59.10
2023-03-16T17:41:19.561Z,59.40
2023-03-16T17:45:46.302Z,60.00
2023-03-16T17:50:21.231Z,60.10
2023-03-16T17:54:45.923Z,60.50
2023-03-16T17:59:16.596Z,60.50
2023-03-16T18:03:44.216Z,60.50
2023-03-16T18:08:17.090Z,60.60
2023-03-16T18:12:41.478Z,60.50
2023-03-16T18:17:28.411Z,60.50
2023-03-16T18:21:54.749Z,60.80
2023-03-16T18:26:19.163Z,60.90
2023-03-16T18:30:45.064Z,60.90
2023-03-16T18:35:15.536Z,61.00
2023-03-16T18:39:41.110Z,60.80
2023-03-16T18:44:18.426Z,60.70
2023-03-16T18:48:42.295Z,60.90
2023-03-16T18:53:06.945Z,60.80
2023-03-16T18:57:33.303Z,60.90
2023-03-16T19:01:58.051Z,61.10
2023-03-16T19:06:27.365Z,61.30
2023-03-16T19:10:53.937Z,61.70
2023-03-16T19:15:24.082Z,61.90
2023-03-16T19:19:47.964Z,62.20
2023-03-16T19:24:22.442Z,62.50
2023-03-16T19:28:47.014Z,62.70
2023-03-16T19:33:19.695Z,63.10
2023-03-16T19:37:43.690Z,63.10
2023-03-16T19:42:12.093Z,63.50
2023-03-16T19:46:36.330Z,63.60
2023-03-16T19:51:02.070Z,63.90
2023-03-16T19:55:29.787Z,64.10
2023-03-16T19:59:56.922Z,64.50
2023-03-16T20:04:23.366Z,65.00
2023-03-16T20:08:49.856Z,65.30
2023-03-16T20:13:14.592Z,65.40
2023-03-16T20:17:38.642Z,65.30
2023-03-16T20:22:02.418Z,65.40
2023-03-16T20:26:32.203Z,65.70
2023-03-16T20:30:56.627Z,65.60
2023-03-16T20:35:23.975Z,65.50
2023-03-16T20:39:48.145Z,65.50
2023-03-16T20:44:16.757Z,65.80
2023-03-16T20:48:40.871Z,66.00
2023-03-16T20:53:04.696Z,66.10
2023-03-16T20:57:30.207Z,66.20
2023-03-16T21:01:49.765Z,66.30
2023-03-16T21:06:22.334Z,66.30
2023-03-16T21:10:43.024Z,66.60
2023-03-16T21:15:04.265Z,66.90
2023-03-16T21:19:25.400Z,67.10
2023-03-16T21:23:46.191Z,67.50
2023-03-16T21:28:05.143Z,67.70
2023-03-16T21:32:27.604Z,68.30
2023-03-16T21:36:46.964Z,68.30
2023-03-16T21:41:07.582Z,68.60
2023-03-16T21:45:25.510Z,68.80
2023-03-16T21:49:43.126Z,69.00
2023-03-16T21:54:02.406Z,69.30
2023-03-16T21:58:22.373Z,69.30
2023-03-16T22:02:40.039Z,69.40
2023-03-16T22:06:58.462Z,69.70
2023-03-16T22:11:19.955Z,69.70
2023-03-16T22:15:37.358Z,69.80
2023-03-16T22:19:55.307Z,70.00
2023-03-16T22:24:16.947Z,70.10
2023-03-16T22:28:35.997Z,70.30
2023-03-16T22:32:58.762Z,70.30
2023-03-16T22:37:20.999Z,70.60
2023-03-16T22:41:40.853Z,70.60
2023-03-16T22:46:00.584Z,70.70
2023-03-16T22:50:22.305Z,70.90
2023-03-16T22:54:41.396Z,70.70
2023-03-16T22:59:02.246Z,70.70
2023-03-16T23:03:23.602Z,70.70
2023-03-16T23:07:41.560Z,70.90
2023-03-16T23:12:01.464Z,71.10
2023-03-16T23:16:22.725Z,71.20
2023-03-16T23:20:43.502Z,71.50
2023-03-16T23:25:03.487Z,71.60
2023-03-16T23:29:21.704Z,71.80
2023-03-16T23:33:38.998Z,71.90
2023-03-16T23:37:58.768Z,72.00
2023-03-16T23:42:18.405Z,72.00
2023-03-16T23:46:36.838Z,72.00
2023-03-16T23:50:56.166Z,71.90
2023-03-16T23:55:19.148Z,71.90
2023-03-16T23:59:54.691Z,71.70
